sensor_id;sensor_type;location;lat;lon;timestamp;P1;durP1;ratioP1;P2;durP2;ratioP2
21519;SDS011;10921;53.614;9.882;2023-04-03T00:00:16;14.70;;;12.65;;
21519;SDS011;10921;53.614;9.882;2023-04-03T00:02:43;16.10;;;11.98;;
21519;SDS011;10921;53.614;9.882;2023-04-03T00:05:09;19.63;;;12.18;;
21519;SDS011;10921;53.614;9.882;2023-04-03T00:07:36;20.33;;;13.27;;
21519;SDS011;10921;53.614;9.882;2023-04-03T00:10:03;17.45;;;13.60;;
21519;SDS011;10921;53.614;9.882;2023-04-03T00:12:29;15.48;;;11.77;;
21519;SDS011;10921;53.614;9.882;2023-04-03T00:14:56;19.70;;;12.45;;
21519;SDS011;10921;53.614;9.882;2023-04-03T00:17:22;15.07;;;12.38;;
21519;SDS011;10921;53.614;9.882;2023-04-03T00:19:49;22.45;;;12.65;;
21519;SDS011;10921;53.614;9.882;2023-04-03T00:22:15;20.05;;;13.30;;
21519;SDS011;10921;53.614;9.882;2023-04-03T00:24:42;14.55;;;12.52;;
21519;SDS011;10921;53.614;9.882;2023-04-03T00:27:08;22.35;;;13.23;;
21519;SDS011;10921;53.614;9.882;2023-04-03T00:29:34;22.52;;;13.93;;
21519;SDS011;10921;53.614;9.882;2023-04-03T00:32:01;25.38;;;12.23;;
21519;SDS011;10921;53.614;9.882;2023-04-03T00:34:27;18.83;;;12.23;;
21519;SDS011;10921;53.614;9.882;2023-04-03T00:36:54;15.38;;;11.68;;
21519;SDS011;10921;53.614;9.882;2023-04-03T00:39:21;16.50;;;11.52;;
21519;SDS011;10921;53.614;9.882;2023-04-03T00:41:47;26.17;;;12.68;;
21519;SDS011;10921;53.614;9.882;2023-04-03T00:47:08;19.42;;;11.32;;
21519;SDS011;10921;53.614;9.882;2023-04-03T00:49:37;22.58;;;12.30;;
21519;SDS011;10921;53.614;9.882;2023-04-03T00:52:08;20.80;;;11.80;;
21519;SDS011;10921;53.614;9.882;2023-04-03T00:54:39;16.40;;;13.13;;
21519;SDS011;10921;53.614;9.882;2023-04-03T00:57:08;17.35;;;11.93;;
21519;SDS011;10921;53.614;9.882;2023-04-03T00:59:40;15.13;;;11.43;;
21519;SDS011;10921;53.614;9.882;2023-04-03T01:02:10;16.02;;;11.60;;
21519;SDS011;10921;53.614;9.882;2023-04-03T01:04:38;23.27;;;12.60;;
21519;SDS011;10921;53.614;9.882;2023-04-03T01:07:08;16.15;;;12.90;;
21519;SDS011;10921;53.614;9.882;2023-04-03T01:09:38;14.18;;;11.60;;
21519;SDS011;10921;53.614;9.882;2023-04-03T01:12:13;14.77;;;11.00;;
21519;SDS011;10921;53.614;9.882;2023-04-03T01:14:43;18.95;;;11.65;;
21519;SDS011;10921;53.614;9.882;2023-04-03T01:22:41;16.13;;;11.65;;
21519;SDS011;10921;53.614;9.882;2023-04-03T01:25:25;16.33;;;12.05;;
21519;SDS011;10921;53.614;9.882;2023-04-03T01:27:52;16.90;;;12.93;;
21519;SDS011;10921;53.614;9.882;2023-04-03T01:30:19;14.13;;;10.93;;
21519;SDS011;10921;53.614;9.882;2023-04-03T01:32:49;18.15;;;11.80;;
21519;SDS011;10921;53.614;9.882;2023-04-03T01:35:16;17.65;;;11.50;;
21519;SDS011;10921;53.614;9.882;2023-04-03T01:37:42;15.75;;;11.35;;
21519;SDS011;10921;53.614;9.882;2023-04-03T01:40:09;18.20;;;11.55;;
21519;SDS011;10921;53.614;9.882;2023-04-03T01:42:36;14.35;;;11.43;;
21519;SDS011;10921;53.614;9.882;2023-04-03T01:45:02;15.15;;;12.20;;
21519;SDS011;10921;53.614;9.882;2023-04-03T01:47:29;17.40;;;12.15;;
21519;SDS011;10921;53.614;9.882;2023-04-03T01:49:56;15.43;;;11.82;;
21519;SDS011;10921;53.614;9.882;2023-04-03T01:52:22;17.95;;;12.52;;
21519;SDS011;10921;53.614;9.882;2023-04-03T01:54:49;21.38;;;12.27;;
21519;SDS011;10921;53.614;9.882;2023-04-03T01:57:16;22.63;;;13.20;;
21519;SDS011;10921;53.614;9.882;2023-04-03T01:59:43;18.23;;;11.50;;
21519;SDS011;10921;53.614;9.882;2023-04-03T02:02:09;23.52;;;11.48;;
21519;SDS011;10921;53.614;9.882;2023-04-03T02:04:38;17.92;;;11.32;;
21519;SDS011;10921;53.614;9.882;2023-04-03T02:07:05;15.85;;;11.00;;
21519;SDS011;10921;53.614;9.882;2023-04-03T02:09:31;19.88;;;11.63;;
21519;SDS011;10921;53.614;9.882;2023-04-03T02:11:58;16.90;;;12.10;;
21519;SDS011;10921;53.614;9.882;2023-04-03T02:14:24;18.83;;;11.18;;
21519;SDS011;10921;53.614;9.882;2023-04-03T02:16:53;15.27;;;12.20;;
21519;SDS011;10921;53.614;9.882;2023-04-03T02:19:20;16.80;;;12.30;;
21519;SDS011;10921;53.614;9.882;2023-04-03T02:21:46;13.82;;;11.85;;
21519;SDS011;10921;53.614;9.882;2023-04-03T02:24:13;15.23;;;11.00;;
21519;SDS011;10921;53.614;9.882;2023-04-03T02:26:39;22.95;;;12.73;;
21519;SDS011;10921;53.614;9.882;2023-04-03T02:29:06;15.65;;;11.50;;
21519;SDS011;10921;53.614;9.882;2023-04-03T02:31:32;17.60;;;11.50;;
21519;SDS011;10921;53.614;9.882;2023-04-03T02:33:59;14.80;;;11.80;;
21519;SDS011;10921;53.614;9.882;2023-04-03T02:36:25;13.32;;;11.32;;
21519;SDS011;10921;53.614;9.882;2023-04-03T02:38:51;16.13;;;12.23;;
21519;SDS011;10921;53.614;9.882;2023-04-03T02:41:18;16.20;;;12.30;;
21519;SDS011;10921;53.614;9.882;2023-04-03T02:43:44;14.75;;;11.68;;
21519;SDS011;10921;53.614;9.882;2023-04-03T02:46:11;12.98;;;11.38;;
21519;SDS011;10921;53.614;9.882;2023-04-03T02:48:38;19.42;;;11.43;;
21519;SDS011;10921;53.614;9.882;2023-04-03T02:51:10;16.55;;;11.05;;
21519;SDS011;10921;53.614;9.882;2023-04-03T02:53:36;18.35;;;10.98;;
21519;SDS011;10921;53.614;9.882;2023-04-03T02:56:03;11.75;;;10.57;;
21519;SDS011;10921;53.614;9.882;2023-04-03T02:58:29;15.02;;;11.48;;
21519;SDS011;10921;53.614;9.882;2023-04-03T03:00:56;13.07;;;11.52;;
21519;SDS011;10921;53.614;9.882;2023-04-03T03:03:22;17.23;;;12.57;;
21519;SDS011;10921;53.614;9.882;2023-04-03T03:05:49;21.92;;;11.48;;
21519;SDS011;10921;53.614;9.882;2023-04-03T03:08:15;19.30;;;11.25;;
21519;SDS011;10921;53.614;9.882;2023-04-03T03:10:46;13.95;;;11.35;;
21519;SDS011;10921;53.614;9.882;2023-04-03T03:13:12;16.05;;;12.68;;
21519;SDS011;10921;53.614;9.882;2023-04-03T03:15:39;15.98;;;11.00;;
21519;SDS011;10921;53.614;9.882;2023-04-03T03:18:05;19.33;;;11.77;;
21519;SDS011;10921;53.614;9.882;2023-04-03T03:20:32;15.73;;;11.80;;
21519;SDS011;10921;53.614;9.882;2023-04-03T03:22:58;21.67;;;11.88;;
21519;SDS011;10921;53.614;9.882;2023-04-03T03:25:24;19.08;;;12.70;;
21519;SDS011;10921;53.614;9.882;2023-04-03T03:27:51;20.08;;;12.57;;
21519;SDS011;10921;53.614;9.882;2023-04-03T03:30:17;22.42;;;12.23;;
21519;SDS011;10921;53.614;9.882;2023-04-03T03:32:44;24.33;;;12.15;;
21519;SDS011;10921;53.614;9.882;2023-04-03T03:35:11;16.92;;;12.50;;
21519;SDS011;10921;53.614;9.882;2023-04-03T03:37:37;14.52;;;12.05;;
21519;SDS011;10921;53.614;9.882;2023-04-03T03:40:04;18.98;;;12.57;;
21519;SDS011;10921;53.614;9.882;2023-04-03T03:42:31;16.60;;;12.00;;
21519;SDS011;10921;53.614;9.882;2023-04-03T03:44:57;15.05;;;12.85;;
21519;SDS011;10921;53.614;9.882;2023-04-03T03:47:24;23.73;;;11.88;;
21519;SDS011;10921;53.614;9.882;2023-04-03T03:49:51;20.38;;;12.13;;
21519;SDS011;10921;53.614;9.882;2023-04-03T03:52:17;15.63;;;11.93;;
21519;SDS011;10921;53.614;9.882;2023-04-03T03:54:44;17.48;;;11.98;;
21519;SDS011;10921;53.614;9.882;2023-04-03T03:57:11;16.38;;;11.80;;
21519;SDS011;10921;53.614;9.882;2023-04-03T03:59:37;18.27;;;12.32;;
21519;SDS011;10921;53.614;9.882;2023-04-03T04:02:04;25.52;;;12.55;;
21519;SDS011;10921;53.614;9.882;2023-04-03T04:04:30;22.38;;;11.55;;
21519;SDS011;10921;53.614;9.882;2023-04-03T04:06:57;16.70;;;12.68;;
21519;SDS011;10921;53.614;9.882;2023-04-03T04:09:24;19.95;;;13.52;;
21519;SDS011;10921;53.614;9.882;2023-04-03T04:11:50;16.73;;;12.18;;
21519;SDS011;10921;53.614;9.882;2023-04-03T04:14:16;14.35;;;12.93;;
21519;SDS011;10921;53.614;9.882;2023-04-03T04:16:43;16.25;;;12.55;;
21519;SDS011;10921;53.614;9.882;2023-04-03T04:19:09;16.50;;;11.77;;
21519;SDS011;10921;53.614;9.882;2023-04-03T04:21:36;22.48;;;12.27;;
21519;SDS011;10921;53.614;9.882;2023-04-03T04:24:02;25.02;;;13.43;;
21519;SDS011;10921;53.614;9.882;2023-04-03T04:26:29;18.98;;;13.85;;
21519;SDS011;10921;53.614;9.882;2023-04-03T04:28:56;22.27;;;13.07;;
21519;SDS011;10921;53.614;9.882;2023-04-03T04:31:22;24.27;;;14.70;;
21519;SDS011;10921;53.614;9.882;2023-04-03T04:33:49;21.00;;;14.70;;
21519;SDS011;10921;53.614;9.882;2023-04-03T04:36:15;32.88;;;18.00;;
21519;SDS011;10921;53.614;9.882;2023-04-03T04:38:42;20.02;;;13.43;;
21519;SDS011;10921;53.614;9.882;2023-04-03T04:41:09;23.73;;;15.75;;
21519;SDS011;10921;53.614;9.882;2023-04-03T04:43:35;27.00;;;15.85;;
21519;SDS011;10921;53.614;9.882;2023-04-03T04:46:06;23.70;;;15.15;;
21519;SDS011;10921;53.614;9.882;2023-04-03T04:48:34;18.80;;;14.85;;
21519;SDS011;10921;53.614;9.882;2023-04-03T04:51:01;26.70;;;15.30;;
21519;SDS011;10921;53.614;9.882;2023-04-03T04:53:28;23.80;;;15.90;;
21519;SDS011;10921;53.614;9.882;2023-04-03T04:55:55;26.40;;;17.25;;
21519;SDS011;10921;53.614;9.882;2023-04-03T04:58:21;26.50;;;17.50;;
21519;SDS011;10921;53.614;9.882;2023-04-03T05:00:48;31.45;;;19.15;;
21519;SDS011;10921;53.614;9.882;2023-04-03T05:03:14;27.38;;;17.83;;
21519;SDS011;10921;53.614;9.882;2023-04-03T05:05:41;22.60;;;16.60;;
21519;SDS011;10921;53.614;9.882;2023-04-03T05:08:07;20.75;;;15.23;;
21519;SDS011;10921;53.614;9.882;2023-04-03T05:10:34;23.90;;;16.52;;
21519;SDS011;10921;53.614;9.882;2023-04-03T05:13:01;19.92;;;14.25;;
21519;SDS011;10921;53.614;9.882;2023-04-03T05:15:27;19.65;;;13.73;;
21519;SDS011;10921;53.614;9.882;2023-04-03T05:17:54;22.77;;;14.50;;
21519;SDS011;10921;53.614;9.882;2023-04-03T05:20:20;16.23;;;14.10;;
21519;SDS011;10921;53.614;9.882;2023-04-03T05:22:47;20.63;;;13.77;;
21519;SDS011;10921;53.614;9.882;2023-04-03T05:25:13;28.95;;;16.15;;
21519;SDS011;10921;53.614;9.882;2023-04-03T05:27:40;21.60;;;14.52;;
21519;SDS011;10921;53.614;9.882;2023-04-03T05:30:06;29.33;;;14.68;;
21519;SDS011;10921;53.614;9.882;2023-04-03T05:32:33;24.30;;;14.15;;
21519;SDS011;10921;53.614;9.882;2023-04-03T05:35:00;23.50;;;15.05;;
21519;SDS011;10921;53.614;9.882;2023-04-03T05:37:26;21.75;;;13.98;;
21519;SDS011;10921;53.614;9.882;2023-04-03T05:39:53;21.67;;;14.32;;
21519;SDS011;10921;53.614;9.882;2023-04-03T05:42:20;21.13;;;14.88;;
21519;SDS011;10921;53.614;9.882;2023-04-03T05:44:46;28.20;;;15.77;;
21519;SDS011;10921;53.614;9.882;2023-04-03T05:47:13;28.42;;;15.73;;
21519;SDS011;10921;53.614;9.882;2023-04-03T05:49:39;27.75;;;14.27;;
21519;SDS011;10921;53.614;9.882;2023-04-03T05:54:48;20.45;;;13.80;;
21519;SDS011;10921;53.614;9.882;2023-04-03T05:57:15;22.50;;;14.35;;
21519;SDS011;10921;53.614;9.882;2023-04-03T05:59:42;19.92;;;13.68;;
21519;SDS011;10921;53.614;9.882;2023-04-03T06:02:10;19.05;;;14.48;;
21519;SDS011;10921;53.614;9.882;2023-04-03T06:04:43;22.77;;;14.70;;
21519;SDS011;10921;53.614;9.882;2023-04-03T06:07:11;20.70;;;14.75;;
21519;SDS011;10921;53.614;9.882;2023-04-03T06:10:01;21.63;;;14.43;;
21519;SDS011;10921;53.614;9.882;2023-04-03T06:12:26;24.25;;;15.68;;
21519;SDS011;10921;53.614;9.882;2023-04-03T06:14:55;24.17;;;15.63;;
21519;SDS011;10921;53.614;9.882;2023-04-03T06:17:21;20.38;;;14.43;;
21519;SDS011;10921;53.614;9.882;2023-04-03T06:19:48;26.17;;;15.63;;
21519;SDS011;10921;53.614;9.882;2023-04-03T06:22:15;22.23;;;16.02;;
21519;SDS011;10921;53.614;9.882;2023-04-03T06:24:42;33.45;;;19.63;;
21519;SDS011;10921;53.614;9.882;2023-04-03T06:27:10;26.15;;;17.27;;
21519;SDS011;10921;53.614;9.882;2023-04-03T06:29:37;24.25;;;15.60;;
21519;SDS011;10921;53.614;9.882;2023-04-03T06:32:04;25.77;;;16.58;;
21519;SDS011;10921;53.614;9.882;2023-04-03T06:34:30;26.95;;;17.00;;
21519;SDS011;10921;53.614;9.882;2023-04-03T06:36:57;18.60;;;15.27;;
21519;SDS011;10921;53.614;9.882;2023-04-03T06:39:24;22.77;;;16.48;;
21519;SDS011;10921;53.614;9.882;2023-04-03T06:41:50;28.08;;;17.13;;
21519;SDS011;10921;53.614;9.882;2023-04-03T06:44:18;22.85;;;16.83;;
21519;SDS011;10921;53.614;9.882;2023-04-03T06:46:44;24.75;;;17.70;;
21519;SDS011;10921;53.614;9.882;2023-04-03T06:49:12;24.33;;;17.52;;
21519;SDS011;10921;53.614;9.882;2023-04-03T06:51:39;26.65;;;18.58;;
21519;SDS011;10921;53.614;9.882;2023-04-03T06:54:06;23.25;;;17.90;;
21519;SDS011;10921;53.614;9.882;2023-04-03T06:56:34;26.90;;;18.67;;
21519;SDS011;10921;53.614;9.882;2023-04-03T06:59:02;23.38;;;19.45;;
21519;SDS011;10921;53.614;9.882;2023-04-03T07:01:29;23.88;;;20.35;;
21519;SDS011;10921;53.614;9.882;2023-04-03T07:03:57;23.23;;;20.80;;
21519;SDS011;10921;53.614;9.882;2023-04-03T07:06:24;21.92;;;19.52;;
21519;SDS011;10921;53.614;9.882;2023-04-03T07:08:53;22.45;;;19.02;;
21519;SDS011;10921;53.614;9.882;2023-04-03T07:11:20;26.25;;;19.85;;
21519;SDS011;10921;53.614;9.882;2023-04-03T07:13:46;25.15;;;19.27;;
21519;SDS011;10921;53.614;9.882;2023-04-03T07:16:13;22.45;;;18.88;;
21519;SDS011;10921;53.614;9.882;2023-04-03T07:18:40;20.83;;;18.63;;
21519;SDS011;10921;53.614;9.882;2023-04-03T07:21:07;25.40;;;17.00;;
21519;SDS011;10921;53.614;9.882;2023-04-03T07:23:34;16.33;;;14.73;;
21519;SDS011;10921;53.614;9.882;2023-04-03T07:26:00;17.58;;;14.60;;
21519;SDS011;10921;53.614;9.882;2023-04-03T07:28:27;15.40;;;13.90;;
21519;SDS011;10921;53.614;9.882;2023-04-03T07:30:59;15.32;;;14.02;;
21519;SDS011;10921;53.614;9.882;2023-04-03T07:33:27;16.20;;;14.18;;
21519;SDS011;10921;53.614;9.882;2023-04-03T07:35:54;15.48;;;13.90;;
21519;SDS011;10921;53.614;9.882;2023-04-03T07:38:20;15.82;;;13.98;;
21519;SDS011;10921;53.614;9.882;2023-04-03T07:40:48;16.90;;;13.88;;
21519;SDS011;10921;53.614;9.882;2023-04-03T07:43:16;14.95;;;13.60;;
21519;SDS011;10921;53.614;9.882;2023-04-03T07:45:43;14.40;;;13.27;;
21519;SDS011;10921;53.614;9.882;2023-04-03T07:48:11;15.50;;;13.75;;
21519;SDS011;10921;53.614;9.882;2023-04-03T07:50:42;15.07;;;13.60;;
21519;SDS011;10921;53.614;9.882;2023-04-03T07:55:36;20.45;;;13.13;;
21519;SDS011;10921;53.614;9.882;2023-04-03T07:58:12;17.30;;;13.95;;
21519;SDS011;10921;53.614;9.882;2023-04-03T08:00:44;14.93;;;13.60;;
21519;SDS011;10921;53.614;9.882;2023-04-03T08:03:11;14.85;;;13.55;;
21519;SDS011;10921;53.614;9.882;2023-04-03T08:05:39;15.73;;;13.80;;
21519;SDS011;10921;53.614;9.882;2023-04-03T08:08:07;16.00;;;14.20;;
21519;SDS011;10921;53.614;9.882;2023-04-03T08:10:36;13.32;;;12.10;;
21519;SDS011;10921;53.614;9.882;2023-04-03T08:13:03;13.75;;;12.00;;
21519;SDS011;10921;53.614;9.882;2023-04-03T08:15:32;13.80;;;12.30;;
21519;SDS011;10921;53.614;9.882;2023-04-03T08:17:59;13.77;;;12.60;;
21519;SDS011;10921;53.614;9.882;2023-04-03T08:20:27;14.95;;;12.20;;
21519;SDS011;10921;53.614;9.882;2023-04-03T08:22:54;13.32;;;12.05;;
21519;SDS011;10921;53.614;9.882;2023-04-03T08:25:21;13.43;;;11.93;;
21519;SDS011;10921;53.614;9.882;2023-04-03T08:27:48;14.52;;;11.85;;
21519;SDS011;10921;53.614;9.882;2023-04-03T08:30:14;16.35;;;11.45;;
21519;SDS011;10921;53.614;9.882;2023-04-03T08:32:41;13.23;;;11.68;;
21519;SDS011;10921;53.614;9.882;2023-04-03T08:35:09;14.07;;;12.75;;
21519;SDS011;10921;53.614;9.882;2023-04-03T08:37:37;13.40;;;11.85;;
21519;SDS011;10921;53.614;9.882;2023-04-03T08:40:05;14.68;;;13.32;;
21519;SDS011;10921;53.614;9.882;2023-04-03T08:50:21;13.27;;;12.18;;
21519;SDS011;10921;53.614;9.882;2023-04-03T08:53:01;13.25;;;12.27;;
21519;SDS011;10921;53.614;9.882;2023-04-03T08:56:06;11.55;;;10.70;;
21519;SDS011;10921;53.614;9.882;2023-04-03T08:58:29;11.38;;;10.32;;
21519;SDS011;10921;53.614;9.882;2023-04-03T09:01:03;14.18;;;10.80;;
21519;SDS011;10921;53.614;9.882;2023-04-03T09:03:37;11.48;;;10.65;;
21519;SDS011;10921;53.614;9.882;2023-04-03T09:12:00;13.15;;;11.95;;
21519;SDS011;10921;53.614;9.882;2023-04-03T09:23:28;15.00;;;12.18;;
21519;SDS011;10921;53.614;9.882;2023-04-03T09:26:04;12.93;;;11.77;;
21519;SDS011;10921;53.614;9.882;2023-04-03T09:28:37;12.55;;;11.50;;
21519;SDS011;10921;53.614;9.882;2023-04-03T09:31:19;13.38;;;12.18;;
21519;SDS011;10921;53.614;9.882;2023-04-03T09:33:53;12.63;;;11.52;;
21519;SDS011;10921;53.614;9.882;2023-04-03T09:36:37;13.23;;;12.02;;
21519;SDS011;10921;53.614;9.882;2023-04-03T09:41:32;12.60;;;11.70;;
21519;SDS011;10921;53.614;9.882;2023-04-03T09:43:59;11.85;;;10.85;;
21519;SDS011;10921;53.614;9.882;2023-04-03T09:49:00;12.68;;;11.50;;
21519;SDS011;10921;53.614;9.882;2023-04-03T09:51:35;11.55;;;10.50;;
21519;SDS011;10921;53.614;9.882;2023-04-03T09:54:23;11.95;;;10.90;;
21519;SDS011;10921;53.614;9.882;2023-04-03T09:56:52;11.73;;;10.50;;
21519;SDS011;10921;53.614;9.882;2023-04-03T09:59:21;12.25;;;10.98;;
21519;SDS011;10921;53.614;9.882;2023-04-03T10:04:42;11.30;;;10.40;;
21519;SDS011;10921;53.614;9.882;2023-04-03T10:07:28;11.90;;;10.70;;
21519;SDS011;10921;53.614;9.882;2023-04-03T10:09:59;12.30;;;11.40;;
21519;SDS011;10921;53.614;9.882;2023-04-03T10:12:27;14.23;;;12.93;;
21519;SDS011;10921;53.614;9.882;2023-04-03T10:15:00;12.82;;;11.90;;
21519;SDS011;10921;53.614;9.882;2023-04-03T10:20:18;13.15;;;11.95;;
21519;SDS011;10921;53.614;9.882;2023-04-03T10:23:14;13.05;;;12.05;;
21519;SDS011;10921;53.614;9.882;2023-04-03T10:28:31;12.88;;;11.55;;
21519;SDS011;10921;53.614;9.882;2023-04-03T10:33:47;13.13;;;12.18;;
21519;SDS011;10921;53.614;9.882;2023-04-03T10:36:31;12.88;;;11.68;;
21519;SDS011;10921;53.614;9.882;2023-04-03T10:45:28;11.43;;;10.43;;
21519;SDS011;10921;53.614;9.882;2023-04-03T10:53:57;11.13;;;10.13;;
21519;SDS011;10921;53.614;9.882;2023-04-03T11:02:41;13.85;;;12.68;;
21519;SDS011;10921;53.614;9.882;2023-04-03T11:05:18;12.63;;;11.32;;
21519;SDS011;10921;53.614;9.882;2023-04-03T11:07:56;13.40;;;12.40;;
21519;SDS011;10921;53.614;9.882;2023-04-03T11:10:31;11.55;;;10.45;;
21519;SDS011;10921;53.614;9.882;2023-04-03T11:13:13;11.80;;;10.70;;
21519;SDS011;10921;53.614;9.882;2023-04-03T11:15:44;12.23;;;11.13;;
21519;SDS011;10921;53.614;9.882;2023-04-03T11:18:15;12.95;;;11.88;;
21519;SDS011;10921;53.614;9.882;2023-04-03T11:21:04;12.27;;;11.20;;
21519;SDS011;10921;53.614;9.882;2023-04-03T11:23:53;12.75;;;11.05;;
21519;SDS011;10921;53.614;9.882;2023-04-03T11:26:26;13.88;;;12.68;;
21519;SDS011;10921;53.614;9.882;2023-04-03T11:28:58;13.23;;;12.07;;
21519;SDS011;10921;53.614;9.882;2023-04-03T11:36:42;12.18;;;11.00;;
21519;SDS011;10921;53.614;9.882;2023-04-03T11:41:50;14.07;;;12.73;;
21519;SDS011;10921;53.614;9.882;2023-04-03T11:44:35;11.85;;;11.00;;
21519;SDS011;10921;53.614;9.882;2023-04-03T11:47:04;13.73;;;12.48;;
21519;SDS011;10921;53.614;9.882;2023-04-03T11:49:57;14.70;;;13.40;;
21519;SDS011;10921;53.614;9.882;2023-04-03T12:08:27;12.43;;;11.20;;
21519;SDS011;10921;53.614;9.882;2023-04-03T12:11:13;11.95;;;10.82;;
21519;SDS011;10921;53.614;9.882;2023-04-03T12:16:27;12.70;;;11.52;;
21519;SDS011;10921;53.614;9.882;2023-04-03T12:19:42;14.32;;;10.93;;
21519;SDS011;10921;53.614;9.882;2023-04-03T12:24:24;14.18;;;13.10;;
21519;SDS011;10921;53.614;9.882;2023-04-03T12:27:07;12.18;;;11.10;;
21519;SDS011;10921;53.614;9.882;2023-04-03T12:29:54;14.07;;;12.90;;
21519;SDS011;10921;53.614;9.882;2023-04-03T12:32:37;15.25;;;13.95;;
21519;SDS011;10921;53.614;9.882;2023-04-03T12:43:50;11.85;;;10.75;;
21519;SDS011;10921;53.614;9.882;2023-04-03T12:46:45;11.20;;;10.35;;
21519;SDS011;10921;53.614;9.882;2023-04-03T12:51:46;11.38;;;10.38;;
21519;SDS011;10921;53.614;9.882;2023-04-03T12:54:15;11.50;;;10.70;;
21519;SDS011;10921;53.614;9.882;2023-04-03T12:56:44;12.00;;;10.88;;
21519;SDS011;10921;53.614;9.882;2023-04-03T13:01:55;12.10;;;10.90;;
21519;SDS011;10921;53.614;9.882;2023-04-03T13:04:30;11.60;;;10.60;;
21519;SDS011;10921;53.614;9.882;2023-04-03T13:06:57;11.80;;;10.85;;
21519;SDS011;10921;53.614;9.882;2023-04-03T13:09:29;11.55;;;10.40;;
21519;SDS011;10921;53.614;9.882;2023-04-03T13:11:58;12.02;;;10.93;;
21519;SDS011;10921;53.614;9.882;2023-04-03T13:14:29;12.05;;;10.80;;
21519;SDS011;10921;53.614;9.882;2023-04-03T13:16:57;12.20;;;11.10;;
21519;SDS011;10921;53.614;9.882;2023-04-03T13:19:26;11.88;;;10.88;;
21519;SDS011;10921;53.614;9.882;2023-04-03T13:22:06;11.93;;;10.80;;
21519;SDS011;10921;53.614;9.882;2023-04-03T13:24:46;11.60;;;10.70;;
21519;SDS011;10921;53.614;9.882;2023-04-03T13:29:43;11.70;;;10.63;;
21519;SDS011;10921;53.614;9.882;2023-04-03T13:32:15;11.63;;;10.73;;
21519;SDS011;10921;53.614;9.882;2023-04-03T13:34:46;11.35;;;10.20;;
21519;SDS011;10921;53.614;9.882;2023-04-03T13:37:23;11.30;;;10.30;;
21519;SDS011;10921;53.614;9.882;2023-04-03T13:40:10;12.25;;;11.07;;
21519;SDS011;10921;53.614;9.882;2023-04-03T13:42:38;11.80;;;10.80;;
21519;SDS011;10921;53.614;9.882;2023-04-03T13:47:40;11.85;;;10.93;;
21519;SDS011;10921;53.614;9.882;2023-04-03T13:52:42;11.40;;;10.30;;
21519;SDS011;10921;53.614;9.882;2023-04-03T13:55:23;11.82;;;10.68;;
21519;SDS011;10921;53.614;9.882;2023-04-03T13:57:57;14.15;;;12.70;;
21519;SDS011;10921;53.614;9.882;2023-04-03T14:03:24;12.80;;;11.70;;
21519;SDS011;10921;53.614;9.882;2023-04-03T14:06:00;13.60;;;12.40;;
21519;SDS011;10921;53.614;9.882;2023-04-03T14:08:27;12.93;;;11.70;;
21519;SDS011;10921;53.614;9.882;2023-04-03T14:11:23;11.70;;;10.60;;
21519;SDS011;10921;53.614;9.882;2023-04-03T14:13:53;11.02;;;10.23;;
21519;SDS011;10921;53.614;9.882;2023-04-03T14:16:23;11.98;;;10.73;;
21519;SDS011;10921;53.614;9.882;2023-04-03T14:18:53;11.82;;;10.82;;
21519;SDS011;10921;53.614;9.882;2023-04-03T14:21:20;11.93;;;10.73;;
21519;SDS011;10921;53.614;9.882;2023-04-03T14:23:47;12.25;;;11.25;;
21519;SDS011;10921;53.614;9.882;2023-04-03T14:26:16;13.10;;;11.85;;
21519;SDS011;10921;53.614;9.882;2023-04-03T14:28:45;11.63;;;10.23;;
21519;SDS011;10921;53.614;9.882;2023-04-03T14:31:13;11.38;;;10.27;;
21519;SDS011;10921;53.614;9.882;2023-04-03T14:33:42;12.95;;;11.85;;
21519;SDS011;10921;53.614;9.882;2023-04-03T14:36:24;13.25;;;12.10;;
21519;SDS011;10921;53.614;9.882;2023-04-03T14:38:53;13.52;;;12.32;;
21519;SDS011;10921;53.614;9.882;2023-04-03T14:41:22;13.85;;;12.60;;
21519;SDS011;10921;53.614;9.882;2023-04-03T14:43:50;13.38;;;12.00;;
21519;SDS011;10921;53.614;9.882;2023-04-03T14:46:28;13.77;;;12.50;;
21519;SDS011;10921;53.614;9.882;2023-04-03T14:49:18;13.30;;;12.00;;
21519;SDS011;10921;53.614;9.882;2023-04-03T14:51:47;13.32;;;12.13;;
21519;SDS011;10921;53.614;9.882;2023-04-03T14:54:15;12.88;;;11.85;;
21519;SDS011;10921;53.614;9.882;2023-04-03T14:56:44;12.95;;;11.82;;
21519;SDS011;10921;53.614;9.882;2023-04-03T14:59:12;12.23;;;10.93;;
21519;SDS011;10921;53.614;9.882;2023-04-03T15:01:40;12.68;;;10.68;;
21519;SDS011;10921;53.614;9.882;2023-04-03T15:04:14;12.30;;;11.18;;
21519;SDS011;10921;53.614;9.882;2023-04-03T15:06:42;12.93;;;10.95;;
21519;SDS011;10921;53.614;9.882;2023-04-03T15:09:19;11.50;;;10.55;;
21519;SDS011;10921;53.614;9.882;2023-04-03T15:11:48;11.52;;;10.20;;
21519;SDS011;10921;53.614;9.882;2023-04-03T15:14:16;10.93;;;9.90;;
21519;SDS011;10921;53.614;9.882;2023-04-03T15:17:02;11.45;;;10.32;;
21519;SDS011;10921;53.614;9.882;2023-04-03T15:19:31;10.90;;;9.90;;
21519;SDS011;10921;53.614;9.882;2023-04-03T15:22:03;11.30;;;10.40;;
21519;SDS011;10921;53.614;9.882;2023-04-03T15:24:29;11.15;;;10.25;;
21519;SDS011;10921;53.614;9.882;2023-04-03T15:26:56;11.55;;;10.50;;
21519;SDS011;10921;53.614;9.882;2023-04-03T15:29:23;12.38;;;11.23;;
21519;SDS011;10921;53.614;9.882;2023-04-03T15:31:50;12.15;;;10.95;;
21519;SDS011;10921;53.614;9.882;2023-04-03T15:34:19;12.07;;;10.90;;
21519;SDS011;10921;53.614;9.882;2023-04-03T15:36:48;11.93;;;10.70;;
21519;SDS011;10921;53.614;9.882;2023-04-03T15:39:15;11.85;;;10.65;;
21519;SDS011;10921;53.614;9.882;2023-04-03T15:41:42;11.65;;;10.48;;
21519;SDS011;10921;53.614;9.882;2023-04-03T15:44:08;11.57;;;10.45;;
21519;SDS011;10921;53.614;9.882;2023-04-03T15:46:35;11.93;;;10.73;;
21519;SDS011;10921;53.614;9.882;2023-04-03T15:49:01;11.10;;;10.07;;
21519;SDS011;10921;53.614;9.882;2023-04-03T15:51:29;12.18;;;10.95;;
21519;SDS011;10921;53.614;9.882;2023-04-03T15:53:56;11.05;;;10.25;;
21519;SDS011;10921;53.614;9.882;2023-04-03T15:56:22;12.32;;;11.25;;
21519;SDS011;10921;53.614;9.882;2023-04-03T15:58:49;12.45;;;11.27;;
21519;SDS011;10921;53.614;9.882;2023-04-03T16:01:15;12.60;;;11.57;;
21519;SDS011;10921;53.614;9.882;2023-04-03T16:03:42;12.80;;;11.50;;
21519;SDS011;10921;53.614;9.882;2023-04-03T16:06:12;15.00;;;13.03;;
21519;SDS011;10921;53.614;9.882;2023-04-03T16:08:44;12.82;;;11.50;;
21519;SDS011;10921;53.614;9.882;2023-04-03T16:11:13;12.20;;;11.10;;
21519;SDS011;10921;53.614;9.882;2023-04-03T16:13:40;12.05;;;10.95;;
21519;SDS011;10921;53.614;9.882;2023-04-03T16:16:07;12.20;;;10.98;;
21519;SDS011;10921;53.614;9.882;2023-04-03T16:18:34;12.60;;;11.30;;
21519;SDS011;10921;53.614;9.882;2023-04-03T16:21:01;11.45;;;10.55;;
21519;SDS011;10921;53.614;9.882;2023-04-03T16:23:28;13.50;;;11.00;;
21519;SDS011;10921;53.614;9.882;2023-04-03T16:25:55;12.57;;;11.30;;
21519;SDS011;10921;53.614;9.882;2023-04-03T16:28:21;12.52;;;11.43;;
21519;SDS011;10921;53.614;9.882;2023-04-03T16:30:47;12.32;;;11.23;;
21519;SDS011;10921;53.614;9.882;2023-04-03T16:33:15;11.95;;;11.02;;
21519;SDS011;10921;53.614;9.882;2023-04-03T16:35:42;12.43;;;11.20;;
21519;SDS011;10921;53.614;9.882;2023-04-03T16:38:10;11.98;;;10.98;;